createdAt,value
2022-12-04T00:01:43.371Z,68.50
2022-12-04T00:04:17.163Z,73.20
2022-12-04T00:06:55.526Z,66.90
2022-12-04T00:09:32.186Z,65.43
2022-12-04T00:12:06.241Z,74.15
2022-12-04T00:15:00.793Z,74.40
2022-12-04T00:17:35.182Z,67.55
2022-12-04T00:20:09.948Z,67.87
2022-12-04T00:22:43.786Z,64.87
2022-12-04T00:25:17.618Z,61.30
2022-12-04T00:27:51.409Z,63.07
2022-12-04T00:30:24.995Z,62.90
2022-12-04T00:33:00.099Z,64.13
2022-12-04T00:35:33.932Z,62.37
2022-12-04T00:38:07.758Z,67.73
2022-12-04T00:40:41.241Z,61.80
2022-12-04T00:43:14.944Z,65.55
2022-12-04T00:45:49.069Z,61.03
2022-12-04T00:48:24.402Z,58.67
2022-12-04T00:51:03.106Z,66.45
2022-12-04T00:53:37.747Z,63.85
2022-12-04T00:56:14.039Z,60.35
2022-12-04T00:58:48.053Z,61.85
2022-12-04T01:01:22.414Z,64.97
2022-12-04T01:03:57.834Z,56.70
2022-12-04T01:06:32.995Z,65.50
2022-12-04T01:09:07.239Z,58.28
2022-12-04T01:11:40.892Z,58.80
2022-12-04T01:14:14.678Z,61.65
2022-12-04T01:16:48.479Z,65.10
2022-12-04T01:19:23.820Z,63.72
2022-12-04T01:21:57.350Z,60.33
2022-12-04T01:24:31.154Z,67.68
2022-12-04T01:27:04.707Z,65.13
2022-12-04T01:29:39.738Z,62.72
2022-12-04T01:32:13.337Z,66.30
2022-12-04T01:34:48.736Z,66.80
2022-12-04T01:37:22.427Z,64.70
2022-12-04T01:39:56.358Z,55.65
2022-12-04T01:42:30.163Z,63.13
2022-12-04T01:45:41.659Z,69.60
2022-12-04T01:48:22.018Z,72.50
2022-12-04T01:51:03.683Z,63.78
2022-12-04T01:53:40.698Z,61.08
2022-12-04T01:56:15.655Z,63.97
2022-12-04T01:58:53.610Z,63.97
2022-12-04T02:01:32.545Z,66.50
2022-12-04T02:04:06.121Z,69.13
2022-12-04T02:06:41.455Z,65.90
2022-12-04T02:09:15.582Z,66.88
2022-12-04T02:11:56.416Z,68.30
2022-12-04T02:14:37.874Z,64.15
2022-12-04T02:17:21.788Z,65.03
2022-12-04T02:20:06.845Z,66.35
2022-12-04T02:23:18.169Z,66.75
2022-12-04T02:26:00.577Z,66.63
2022-12-04T02:28:43.027Z,67.70
2022-12-04T02:31:23.932Z,77.68
2022-12-04T02:34:02.131Z,71.40
2022-12-04T02:36:41.857Z,70.18
2022-12-04T02:39:20.432Z,64.07
2022-12-04T02:41:58.358Z,63.35
2022-12-04T02:44:38.059Z,71.57
2022-12-04T02:47:14.500Z,69.28
2022-12-04T02:49:53.410Z,65.53
2022-12-04T02:52:33.028Z,69.40
2022-12-04T02:55:12.152Z,66.72
2022-12-04T02:57:50.004Z,67.57
2022-12-04T03:00:25.457Z,71.90
2022-12-04T03:03:02.944Z,67.18
2022-12-04T03:05:42.211Z,66.90
2022-12-04T03:08:21.177Z,65.50
2022-12-04T03:10:58.341Z,64.63
2022-12-04T03:13:37.391Z,62.35
2022-12-04T03:16:17.338Z,70.33
2022-12-04T03:18:55.377Z,62.22
2022-12-04T03:21:34.222Z,66.03
2022-12-04T03:24:14.149Z,65.45
2022-12-04T03:26:51.545Z,62.53
2022-12-04T03:29:33.142Z,63.00
2022-12-04T03:32:13.576Z,60.72
2022-12-04T03:34:55.300Z,65.88
2022-12-04T03:37:35.172Z,70.32
2022-12-04T03:40:16.650Z,61.15
2022-12-04T03:42:55.892Z,65.70
2022-12-04T03:45:37.473Z,68.57
2022-12-04T03:48:23.016Z,64.68
2022-12-04T03:51:01.589Z,66.75
2022-12-04T03:53:40.820Z,61.08
2022-12-04T03:56:18.922Z,66.45
2022-12-04T03:58:57.829Z,69.47
2022-12-04T04:01:39.149Z,57.53
2022-12-04T04:04:17.807Z,62.13
2022-12-04T04:06:56.379Z,64.53
2022-12-04T04:12:12.072Z,62.05
2022-12-04T04:15:08.756Z,65.88
2022-12-04T04:18:02.050Z,70.38
2022-12-04T04:21:00.004Z,56.55
2022-12-04T04:23:57.053Z,63.78
2022-12-04T04:26:36.166Z,67.57
2022-12-04T04:29:10.331Z,62.03
2022-12-04T04:31:50.349Z,62.80
2022-12-04T04:34:33.553Z,65.20
2022-12-04T04:37:17.776Z,64.00
2022-12-04T04:39:58.164Z,59.88
2022-12-04T04:42:37.194Z,64.82
2022-12-04T04:45:17.431Z,63.53
2022-12-04T04:47:55.493Z,64.13
2022-12-04T04:50:31.347Z,63.93
2022-12-04T04:53:10.625Z,68.22
2022-12-04T04:55:45.164Z,66.90
2022-12-04T04:58:21.366Z,60.58
2022-12-04T05:01:00.685Z,64.95
2022-12-04T05:03:35.147Z,65.55
2022-12-04T05:06:09.515Z,63.30
2022-12-04T05:08:44.866Z,70.47
2022-12-04T05:11:19.037Z,64.18
2022-12-04T05:13:52.754Z,64.57
2022-12-04T05:16:26.262Z,71.45
2022-12-04T05:19:18.090Z,65.18
2022-12-04T05:21:51.756Z,65.82
2022-12-04T05:24:27.114Z,72.20
2022-12-04T05:27:00.760Z,66.93
2022-12-04T05:29:36.040Z,67.97
2022-12-04T05:32:09.850Z,63.10
2022-12-04T05:34:43.593Z,65.30
2022-12-04T05:37:17.516Z,64.90
2022-12-04T05:39:52.856Z,60.05
2022-12-04T05:42:27.069Z,63.60
2022-12-04T05:45:00.788Z,66.82
2022-12-04T05:47:39.123Z,64.27
2022-12-04T05:50:14.583Z,65.90
2022-12-04T05:52:48.159Z,67.75
2022-12-04T05:55:23.221Z,68.43
2022-12-04T05:57:56.911Z,60.65
2022-12-04T06:00:31.070Z,65.25
2022-12-04T06:03:04.915Z,67.38
2022-12-04T06:05:38.736Z,67.82
2022-12-04T06:08:12.630Z,65.78
2022-12-04T06:10:47.725Z,67.20
2022-12-04T06:13:21.296Z,62.67
2022-12-04T06:15:55.122Z,62.95
2022-12-04T06:18:28.726Z,67.22
2022-12-04T06:21:02.633Z,64.55
2022-12-04T06:23:36.237Z,63.58
2022-12-04T06:26:11.420Z,67.22
2022-12-04T06:28:45.214Z,63.97
2022-12-04T06:31:20.010Z,68.82
2022-12-04T06:33:54.650Z,73.85
2022-12-04T06:36:28.515Z,75.13
2022-12-04T06:39:02.244Z,65.68
2022-12-04T06:41:37.692Z,67.97
2022-12-04T06:44:11.340Z,60.85
2022-12-04T06:46:47.592Z,76.57
2022-12-04T06:49:22.926Z,70.05
2022-12-04T06:51:56.926Z,69.10
2022-12-04T06:54:30.515Z,73.00
2022-12-04T06:57:05.639Z,74.70
2022-12-04T06:59:39.237Z,71.45
2022-12-04T07:02:12.966Z,73.55
2022-12-04T07:04:46.686Z,73.05
2022-12-04T07:07:20.410Z,71.05
2022-12-04T07:09:54.112Z,76.88
2022-12-04T07:12:29.398Z,72.00
2022-12-04T07:15:02.963Z,70.65
2022-12-04T07:17:37.236Z,72.10
2022-12-04T07:20:11.697Z,82.15
2022-12-04T07:22:45.463Z,74.10
2022-12-04T07:25:19.702Z,75.93
2022-12-04T07:27:54.864Z,74.22
2022-12-04T07:30:28.618Z,71.80
2022-12-04T07:33:03.090Z,75.38
2022-12-04T07:35:36.746Z,79.95
2022-12-04T07:38:10.523Z,71.28
2022-12-04T07:40:44.058Z,73.50
2022-12-04T07:43:19.149Z,80.55
2022-12-04T07:45:52.824Z,76.03
2022-12-04T07:48:32.995Z,71.32
2022-12-04T07:51:08.410Z,73.85
2022-12-04T07:53:42.972Z,82.60
2022-12-04T07:56:16.726Z,74.82
2022-12-04T07:58:51.958Z,76.28
2022-12-04T08:01:25.804Z,74.28
2022-12-04T08:04:01.479Z,75.35
2022-12-04T08:06:36.032Z,88.22
2022-12-04T08:09:10.391Z,79.93
2022-12-04T08:11:44.119Z,75.05
2022-12-04T08:14:19.236Z,76.18
2022-12-04T08:16:53.199Z,73.07
2022-12-04T08:19:27.031Z,80.03
2022-12-04T08:22:00.565Z,77.35
2022-12-04T08:24:34.289Z,75.10
2022-12-04T08:27:07.885Z,73.30
2022-12-04T08:29:42.960Z,77.38
2022-12-04T08:32:16.513Z,79.10
2022-12-04T08:34:55.728Z,85.43
2022-12-04T08:37:29.619Z,72.53
2022-12-04T08:40:03.984Z,70.20
2022-12-04T08:42:37.993Z,82.00
2022-12-04T08:45:13.541Z,76.60
2022-12-04T08:47:52.285Z,72.32
2022-12-04T08:50:27.225Z,78.55
2022-12-04T08:53:00.810Z,78.13
2022-12-04T08:55:36.135Z,78.80
2022-12-04T08:58:09.881Z,76.40
2022-12-04T09:00:45.123Z,78.45
2022-12-04T09:03:24.750Z,74.20
2022-12-04T09:06:02.625Z,80.72
2022-12-04T09:08:37.451Z,72.65
2022-12-04T09:11:13.665Z,69.07
2022-12-04T09:13:48.679Z,71.70
2022-12-04T09:16:25.501Z,79.75
2022-12-04T09:18:59.226Z,72.80
2022-12-04T09:21:33.102Z,97.53
2022-12-04T09:24:07.076Z,72.40
2022-12-04T09:26:41.069Z,71.00
2022-12-04T09:29:14.965Z,72.03
2022-12-04T09:31:50.247Z,67.43
2022-12-04T09:34:23.860Z,78.25
2022-12-04T09:36:57.860Z,63.58
2022-12-04T09:39:31.622Z,63.58
2022-12-04T09:42:31.695Z,61.67
2022-12-04T09:45:12.893Z,64.95
2022-12-04T09:47:50.661Z,75.30
2022-12-04T09:50:27.726Z,61.58
2022-12-04T09:53:04.449Z,62.70
2022-12-04T09:55:43.474Z,65.22
2022-12-04T09:58:22.243Z,65.63
2022-12-04T10:00:57.660Z,66.65
2022-12-04T10:03:33.113Z,67.82
2022-12-04T10:06:14.415Z,66.65
2022-12-04T10:09:02.757Z,62.08
2022-12-04T10:11:50.501Z,64.35
2022-12-04T10:14:42.184Z,62.60
2022-12-04T10:17:32.993Z,56.72
2022-12-04T10:20:22.799Z,59.72
2022-12-04T10:23:12.231Z,58.35
2022-12-04T10:25:50.305Z,66.72
2022-12-04T10:28:28.822Z,61.03
2022-12-04T10:31:06.088Z,61.35
2022-12-04T10:33:45.341Z,66.70
2022-12-04T10:36:22.886Z,57.00
2022-12-04T10:38:59.901Z,56.95
2022-12-04T10:41:42.362Z,58.97
2022-12-04T10:44:18.385Z,59.40
2022-12-04T10:46:56.138Z,64.35
2022-12-04T10:49:31.517Z,58.83
2022-12-04T10:52:07.851Z,60.85
2022-12-04T10:54:48.273Z,57.35
2022-12-04T10:57:22.121Z,61.28
2022-12-04T10:59:58.837Z,59.85
2022-12-04T11:02:34.794Z,55.15
2022-12-04T11:05:24.329Z,55.17
2022-12-04T11:08:01.588Z,65.10
2022-12-04T11:10:38.853Z,65.97
2022-12-04T11:13:18.055Z,57.72
2022-12-04T11:15:53.493Z,60.25
2022-12-04T11:18:29.454Z,59.33
2022-12-04T11:21:06.251Z,65.88
2022-12-04T11:23:46.452Z,57.95
2022-12-04T11:26:31.611Z,61.80
2022-12-04T11:29:07.386Z,56.47
2022-12-04T11:31:41.713Z,66.28
2022-12-04T11:34:21.373Z,63.95
2022-12-04T11:36:58.106Z,60.83
2022-12-04T11:39:37.692Z,52.92
2022-12-04T11:42:19.528Z,58.83
2022-12-04T11:44:56.456Z,56.67
2022-12-04T11:47:32.127Z,59.35
2022-12-04T11:50:28.963Z,57.60
2022-12-04T11:53:11.360Z,63.60
2022-12-04T11:56:01.274Z,60.25
2022-12-04T11:58:52.394Z,56.58
2022-12-04T12:01:41.466Z,57.25
2022-12-04T12:04:34.785Z,55.95
2022-12-04T12:07:23.199Z,59.22
2022-12-04T12:10:04.745Z,56.75
2022-12-04T12:12:53.486Z,53.00
2022-12-04T12:15:38.179Z,57.38
2022-12-04T12:18:27.218Z,57.88
2022-12-04T12:24:03.851Z,59.33
2022-12-04T12:26:47.432Z,52.63
2022-12-04T12:29:44.406Z,58.28
2022-12-04T12:32:37.323Z,53.78
2022-12-04T12:35:21.617Z,55.40
2022-12-04T12:38:00.918Z,58.35
2022-12-04T12:40:38.156Z,53.67
2022-12-04T12:43:17.380Z,61.08
2022-12-04T12:45:56.579Z,53.95
2022-12-04T12:48:38.292Z,53.30
2022-12-04T12:51:30.062Z,54.25
2022-12-04T12:54:15.305Z,51.60
2022-12-04T12:56:54.788Z,54.33
2022-12-04T12:59:29.098Z,54.25
2022-12-04T13:02:09.375Z,58.50
2022-12-04T13:04:45.701Z,58.97
2022-12-04T13:07:30.423Z,55.75
2022-12-04T13:10:08.831Z,56.60
2022-12-04T13:12:47.095Z,58.80
2022-12-04T13:15:24.991Z,54.95
2022-12-04T13:18:01.375Z,49.47
2022-12-04T13:20:42.999Z,46.38
2022-12-04T13:23:28.189Z,50.65
2022-12-04T13:26:06.810Z,47.00
2022-12-04T13:28:53.417Z,47.13
2022-12-04T13:31:36.565Z,47.40
2022-12-04T13:34:32.221Z,51.08
2022-12-04T13:37:24.270Z,46.85
2022-12-04T13:40:34.352Z,45.55
2022-12-04T13:43:24.962Z,47.75
2022-12-04T13:46:01.515Z,53.47
2022-12-04T13:48:39.820Z,46.85
2022-12-04T13:51:37.417Z,45.28
2022-12-04T13:54:29.851Z,47.33
2022-12-04T13:57:22.198Z,47.25
2022-12-04T14:00:05.688Z,51.88
2022-12-04T14:02:45.442Z,45.42
2022-12-04T14:05:28.011Z,52.42
2022-12-04T14:08:09.320Z,45.95
2022-12-04T14:10:43.696Z,50.33
2022-12-04T14:13:21.825Z,46.97
2022-12-04T14:16:05.459Z,44.67
2022-12-04T14:18:39.414Z,45.90
2022-12-04T14:21:13.249Z,48.80
2022-12-04T14:23:48.843Z,47.47
2022-12-04T14:27:10.673Z,51.00
2022-12-04T14:29:35.704Z,49.25
2022-12-04T14:32:14.916Z,56.45
2022-12-04T14:34:49.047Z,55.80
2022-12-04T14:37:28.880Z,51.50
2022-12-04T14:40:07.234Z,53.60
2022-12-04T14:42:41.484Z,51.30
2022-12-04T14:45:25.267Z,48.78
2022-12-04T14:48:14.184Z,56.55
2022-12-04T14:50:56.681Z,56.90
2022-12-04T14:53:40.203Z,60.40
2022-12-04T14:56:41.968Z,61.00
2022-12-04T14:59:18.624Z,56.88
2022-12-04T15:01:55.691Z,56.88
2022-12-04T15:04:33.718Z,57.95
2022-12-04T15:07:07.664Z,59.70
2022-12-04T15:10:09.113Z,58.15
2022-12-04T15:12:48.400Z,65.45
2022-12-04T15:15:25.294Z,58.88
2022-12-04T15:18:01.795Z,61.30
2022-12-04T15:20:41.781Z,67.50
2022-12-04T15:23:17.380Z,63.35
2022-12-04T15:25:53.137Z,60.70
2022-12-04T15:28:32.607Z,58.88
2022-12-04T15:31:11.447Z,61.75
2022-12-04T15:33:47.153Z,64.85
2022-12-04T15:36:36.640Z,60.30
2022-12-04T15:39:15.450Z,63.28
2022-12-04T15:41:49.556Z,61.05
2022-12-04T15:44:28.569Z,61.75
2022-12-04T15:47:04.349Z,63.42
2022-12-04T15:49:38.125Z,61.03
2022-12-04T15:52:16.923Z,60.08
2022-12-04T15:54:56.578Z,65.35
2022-12-04T15:57:32.370Z,58.17
2022-12-04T16:00:25.114Z,58.08
2022-12-04T16:03:00.060Z,54.67
2022-12-04T16:05:37.216Z,54.50
2022-12-04T16:08:25.095Z,52.17
2022-12-04T16:11:00.641Z,54.05
2022-12-04T16:13:36.224Z,60.85
2022-12-04T16:16:16.694Z,56.97
2022-12-04T16:18:50.492Z,59.88
2022-12-04T16:21:30.524Z,57.60
2022-12-04T16:24:05.428Z,51.28
2022-12-04T16:26:39.217Z,58.63
2022-12-04T16:29:12.839Z,53.50
2022-12-04T16:31:51.605Z,50.92
2022-12-04T16:34:25.200Z,57.40
2022-12-04T16:37:00.061Z,55.03
2022-12-04T16:39:38.234Z,53.40
2022-12-04T16:42:18.518Z,58.83
2022-12-04T16:44:52.743Z,57.58
2022-12-04T16:47:27.977Z,54.92
2022-12-04T16:50:01.609Z,53.38
2022-12-04T16:52:35.777Z,51.38
2022-12-04T16:55:18.365Z,56.80
2022-12-04T16:57:52.282Z,55.15
2022-12-04T17:00:25.988Z,52.53
2022-12-04T17:03:04.066Z,52.80
2022-12-04T17:05:38.191Z,55.83
2022-12-04T17:08:12.374Z,62.75
2022-12-04T17:10:46.266Z,60.75
2022-12-04T17:13:20.807Z,52.47
2022-12-04T17:15:54.433Z,50.08
2022-12-04T17:18:30.044Z,55.83
2022-12-04T17:21:05.987Z,51.72
2022-12-04T17:23:40.460Z,50.10
2022-12-04T17:26:16.037Z,56.22
2022-12-04T17:28:50.565Z,48.15
2022-12-04T17:31:25.903Z,50.15
2022-12-04T17:34:01.189Z,54.72
2022-12-04T17:36:34.764Z,50.13
2022-12-04T17:39:11.455Z,46.97
2022-12-04T17:41:45.113Z,50.00
2022-12-04T17:44:18.909Z,48.55
2022-12-04T17:46:53.433Z,45.83
2022-12-04T17:49:28.875Z,45.03
2022-12-04T17:52:02.891Z,43.88
2022-12-04T17:54:36.738Z,44.80
2022-12-04T17:57:10.339Z,48.42
2022-12-04T17:59:44.409Z,45.33
2022-12-04T18:02:18.349Z,42.90
2022-12-04T18:04:54.436Z,39.97
2022-12-04T18:07:28.369Z,38.70
2022-12-04T18:10:02.212Z,39.95
2022-12-04T18:12:36.174Z,36.70
2022-12-04T18:15:10.666Z,39.22
2022-12-04T18:17:44.505Z,32.80
2022-12-04T18:20:19.668Z,36.10
2022-12-04T18:22:53.454Z,35.38
2022-12-04T18:25:27.449Z,34.50
2022-12-04T18:28:01.036Z,37.35
2022-12-04T18:30:36.077Z,38.60
2022-12-04T18:33:10.584Z,37.78
2022-12-04T18:35:55.871Z,36.85
2022-12-04T18:38:32.014Z,39.65
2022-12-04T18:41:07.519Z,40.45
2022-12-04T18:43:44.414Z,40.45
2022-12-04T18:46:19.526Z,35.60
2022-12-04T18:48:54.767Z,36.92
2022-12-04T18:51:32.129Z,39.55
2022-12-04T18:54:08.296Z,38.90
2022-12-04T18:56:43.137Z,38.15
2022-12-04T18:59:18.282Z,40.05
2022-12-04T19:01:52.511Z,40.40
2022-12-04T19:04:26.896Z,43.47
2022-12-04T19:07:04.799Z,46.95
2022-12-04T19:10:10.082Z,41.97
2022-12-04T19:12:32.114Z,44.15
2022-12-04T19:15:06.565Z,43.88
2022-12-04T19:17:40.354Z,45.92
2022-12-04T19:20:14.585Z,45.83
2022-12-04T19:22:50.058Z,47.88
2022-12-04T19:25:23.646Z,50.08
2022-12-04T19:27:57.773Z,45.58
2022-12-04T19:30:32.959Z,43.85
2022-12-04T19:33:06.862Z,47.95
2022-12-04T19:35:40.603Z,46.10
2022-12-04T19:38:16.098Z,46.53
2022-12-04T19:40:49.770Z,44.55
2022-12-04T19:43:23.615Z,44.90
2022-12-04T19:45:57.357Z,47.50
2022-12-04T19:48:31.113Z,45.05
2022-12-04T19:51:05.766Z,40.28
2022-12-04T19:53:41.479Z,41.10
2022-12-04T19:56:16.780Z,45.10
2022-12-04T19:58:50.820Z,43.22
2022-12-04T20:01:26.755Z,43.75
2022-12-04T20:04:02.474Z,40.63
2022-12-04T20:06:38.788Z,42.20
2022-12-04T20:09:15.214Z,42.63
2022-12-04T20:11:49.348Z,40.83
2022-12-04T20:14:24.267Z,43.25
2022-12-04T20:16:58.572Z,42.53
2022-12-04T20:19:32.362Z,36.38
2022-12-04T20:22:06.195Z,41.35
2022-12-04T20:24:41.353Z,39.05
2022-12-04T20:27:15.144Z,39.88
2022-12-04T20:29:48.950Z,41.28
2022-12-04T20:32:22.646Z,41.85
2022-12-04T20:34:56.364Z,44.83
2022-12-04T20:37:30.005Z,36.35
2022-12-04T20:40:07.551Z,39.88
2022-12-04T20:42:41.112Z,38.17
2022-12-04T20:45:15.132Z,40.38
2022-12-04T20:47:48.711Z,40.88
2022-12-04T20:50:22.546Z,40.58
2022-12-04T20:52:56.160Z,39.58
2022-12-04T20:55:31.256Z,43.10
2022-12-04T20:58:04.973Z,40.42
2022-12-04T21:00:38.769Z,43.85
2022-12-04T21:03:12.470Z,42.22
2022-12-04T21:05:49.769Z,42.75
2022-12-04T21:08:48.558Z,44.85
2022-12-04T21:11:24.604Z,45.70
2022-12-04T21:14:18.065Z,43.13
2022-12-04T21:16:52.134Z,44.13
2022-12-04T21:19:25.980Z,45.60
2022-12-04T21:21:59.794Z,47.67
2022-12-04T21:24:38.260Z,41.83
2022-12-04T21:27:19.097Z,45.78
2022-12-04T21:29:55.965Z,41.60
2022-12-04T21:32:30.097Z,42.20
2022-12-04T21:35:03.692Z,43.53
2022-12-04T21:37:37.707Z,43.85
2022-12-04T21:40:11.833Z,45.92
2022-12-04T21:42:47.046Z,46.55
2022-12-04T21:45:20.721Z,42.97
2022-12-04T21:47:54.485Z,45.60
2022-12-04T21:50:28.061Z,47.53
2022-12-04T21:53:01.775Z,41.50
2022-12-04T21:55:35.487Z,45.85
2022-12-04T21:58:10.629Z,46.47
2022-12-04T22:00:44.416Z,45.65
2022-12-04T22:03:19.067Z,45.05
2022-12-04T22:05:52.841Z,44.85
2022-12-04T22:08:26.587Z,52.45
2022-12-04T22:11:00.185Z,49.75
2022-12-04T22:13:36.950Z,50.80
2022-12-04T22:16:13.001Z,52.42
2022-12-04T22:18:47.250Z,51.67
2022-12-04T22:21:21.023Z,46.70
2022-12-04T22:23:58.616Z,52.30
2022-12-04T22:26:32.450Z,45.17
2022-12-04T22:29:41.616Z,51.25
2022-12-04T22:32:02.540Z,48.97
2022-12-04T22:34:36.452Z,50.92
2022-12-04T22:37:10.209Z,49.92
2022-12-04T22:39:44.038Z,49.50
2022-12-04T22:42:17.617Z,52.00
2022-12-04T22:44:52.709Z,50.30
2022-12-04T22:47:26.313Z,51.83
2022-12-04T22:50:00.342Z,51.28
2022-12-04T22:52:34.343Z,45.78
2022-12-04T22:55:08.897Z,46.38
2022-12-04T22:57:42.466Z,47.58
2022-12-04T23:00:17.969Z,50.92
2022-12-04T23:02:51.666Z,51.13
2022-12-04T23:05:25.605Z,51.72
2022-12-04T23:07:59.419Z,48.35
2022-12-04T23:10:33.356Z,51.38
2022-12-04T23:13:07.027Z,46.95
2022-12-04T23:15:42.217Z,49.85
2022-12-04T23:18:15.903Z,52.75
2022-12-04T23:20:49.741Z,47.15
2022-12-04T23:23:23.260Z,51.05
2022-12-04T23:25:57.018Z,44.42
2022-12-04T23:28:30.586Z,45.58
2022-12-04T23:31:06.156Z,48.78
2022-12-04T23:33:40.568Z,44.10
2022-12-04T23:36:15.237Z,43.40
2022-12-04T23:38:48.958Z,40.75
2022-12-04T23:41:24.477Z,45.63
2022-12-04T23:43:58.603Z,46.33
2022-12-04T23:46:34.156Z,43.55
2022-12-04T23:49:07.683Z,45.45
2022-12-04T23:51:41.539Z,44.90
2022-12-04T23:54:15.224Z,44.22
2022-12-04T23:56:49.350Z,45.35
2022-12-04T23:59:22.936Z,43.30
